sensor_id;sensor_type;location;lat;lon;timestamp;pressure;altitude;pressure_sealevel;temperature
45701;BMP280;36277;32.852;-116.998;2023-02-25T00:00:08;100090.13;;;22.85
45701;BMP280;36277;32.852;-116.998;2023-02-25T00:02:45;100091.38;;;22.83
45701;BMP280;36277;32.852;-116.998;2023-02-25T00:05:11;100080.53;;;22.81
45701;BMP280;36277;32.852;-116.998;2023-02-25T00:07:38;100083.13;;;22.83
45701;BMP280;36277;32.852;-116.998;2023-02-25T00:10:06;100085.88;;;22.83
45701;BMP280;36277;32.852;-116.998;2023-02-25T00:12:33;100079.69;;;22.81
45701;BMP280;36277;32.852;-116.998;2023-02-25T00:14:59;100077.63;;;22.83
45701;BMP280;36277;32.852;-116.998;2023-02-25T00:17:26;100079.31;;;22.84
45701;BMP280;36277;32.852;-116.998;2023-02-25T00:19:52;100076.38;;;22.85
45701;BMP280;36277;32.852;-116.998;2023-02-25T00:22:23;100080.00;;;22.86
45701;BMP280;36277;32.852;-116.998;2023-02-25T00:24:54;100073.06;;;22.90
45701;BMP280;36277;32.852;-116.998;2023-02-25T00:27:22;100073.44;;;22.87
45701;BMP280;36277;32.852;-116.998;2023-02-25T00:29:52;100078.94;;;22.87
45701;BMP280;36277;32.852;-116.998;2023-02-25T00:32:19;100078.94;;;22.87
45701;BMP280;36277;32.852;-116.998;2023-02-25T00:34:45;100081.88;;;22.85
45701;BMP280;36277;32.852;-116.998;2023-02-25T00:37:13;100084.47;;;22.87
45701;BMP280;36277;32.852;-116.998;2023-02-25T00:39:39;100081.72;;;22.87
45701;BMP280;36277;32.852;-116.998;2023-02-25T00:42:09;100074.66;;;22.84
45701;BMP280;36277;32.852;-116.998;2023-02-25T00:44:36;100083.13;;;22.83
45701;BMP280;36277;32.852;-116.998;2023-02-25T00:47:03;100083.13;;;22.83
45701;BMP280;36277;32.852;-116.998;2023-02-25T00:49:30;100076.94;;;22.81
45701;BMP280;36277;32.852;-116.998;2023-02-25T00:51:56;100071.81;;;22.78
45701;BMP280;36277;32.852;-116.998;2023-02-25T00:54:23;100060.81;;;22.78
45701;BMP280;36277;32.852;-116.998;2023-02-25T00:56:49;100065.25;;;22.79
45701;BMP280;36277;32.852;-116.998;2023-02-25T00:59:15;100060.13;;;22.76
45701;BMP280;36277;32.852;-116.998;2023-02-25T01:01:42;100063.94;;;22.75
45701;BMP280;36277;32.852;-116.998;2023-02-25T01:04:08;100064.78;;;22.75
45701;BMP280;36277;32.852;-116.998;2023-02-25T01:06:36;100065.84;;;22.74
45701;BMP280;36277;32.852;-116.998;2023-02-25T01:09:05;100058.41;;;22.75
45701;BMP280;36277;32.852;-116.998;2023-02-25T01:11:34;100066.69;;;22.75
45701;BMP280;36277;32.852;-116.998;2023-02-25T01:14:10;100064.59;;;22.77
45701;BMP280;36277;32.852;-116.998;2023-02-25T01:16:38;100075.28;;;22.72
45701;BMP280;36277;32.852;-116.998;2023-02-25T01:19:12;100066.50;;;22.76
45701;BMP280;36277;32.852;-116.998;2023-02-25T01:21:41;100066.88;;;22.73
45701;BMP280;36277;32.852;-116.998;2023-02-25T01:24:14;100063.94;;;22.75
45701;BMP280;36277;32.852;-116.998;2023-02-25T01:26:42;100063.25;;;22.73
45701;BMP280;36277;32.852;-116.998;2023-02-25T01:29:12;100058.41;;;22.75
45701;BMP280;36277;32.852;-116.998;2023-02-25T01:31:39;100058.63;;;22.73
45701;BMP280;36277;32.852;-116.998;2023-02-25T01:34:07;100062.88;;;22.76
45701;BMP280;36277;32.852;-116.998;2023-02-25T01:36:35;100060.50;;;22.73
45701;BMP280;36277;32.852;-116.998;2023-02-25T01:39:02;100064.13;;;22.73
45701;BMP280;36277;32.852;-116.998;2023-02-25T01:41:30;100062.03;;;22.75
45701;BMP280;36277;32.852;-116.998;2023-02-25T01:44:09;100049.78;;;22.78
45701;BMP280;36277;32.852;-116.998;2023-02-25T01:46:36;100061.38;;;22.73
45701;BMP280;36277;32.852;-116.998;2023-02-25T01:49:14;100055.50;;;22.76
45701;BMP280;36277;32.852;-116.998;2023-02-25T01:51:43;100053.97;;;22.74
45701;BMP280;36277;32.852;-116.998;2023-02-25T01:54:13;100044.00;;;22.73
45701;BMP280;36277;32.852;-116.998;2023-02-25T01:56:43;100048.00;;;22.70
45701;BMP280;36277;32.852;-116.998;2023-02-25T01:59:13;100048.16;;;22.69
45701;BMP280;36277;32.852;-116.998;2023-02-25T02:01:41;100047.13;;;22.70
45701;BMP280;36277;32.852;-116.998;2023-02-25T02:04:11;100042.66;;;22.69
45701;BMP280;36277;32.852;-116.998;2023-02-25T02:06:42;100034.59;;;22.67
45701;BMP280;36277;32.852;-116.998;2023-02-25T02:09:12;100025.50;;;22.67
45701;BMP280;36277;32.852;-116.998;2023-02-25T02:11:39;100019.34;;;22.65
45701;BMP280;36277;32.852;-116.998;2023-02-25T02:14:08;100019.34;;;22.65
45701;BMP280;36277;32.852;-116.998;2023-02-25T02:22:33;99986.69;;;22.62
45701;BMP280;36277;32.852;-116.998;2023-02-25T02:34:21;99999.28;;;22.56
45701;BMP280;36277;32.852;-116.998;2023-02-25T02:36:50;100007.94;;;22.53
45701;BMP280;36277;32.852;-116.998;2023-02-25T02:39:43;99998.66;;;22.54
45701;BMP280;36277;32.852;-116.998;2023-02-25T02:42:18;99999.00;;;22.51
45701;BMP280;36277;32.852;-116.998;2023-02-25T02:47:57;99998.81;;;22.53
45701;BMP280;36277;32.852;-116.998;2023-02-25T02:50:37;99994.84;;;22.55
45701;BMP280;36277;32.852;-116.998;2023-02-25T02:53:20;99995.50;;;22.57
45701;BMP280;36277;32.852;-116.998;2023-02-25T02:55:54;99988.47;;;22.55
45701;BMP280;36277;32.852;-116.998;2023-02-25T02:58:35;99990.00;;;22.57
45701;BMP280;36277;32.852;-116.998;2023-02-25T03:01:18;99996.53;;;22.56
45701;BMP280;36277;32.852;-116.998;2023-02-25T03:03:54;99991.59;;;22.52
45701;BMP280;36277;32.852;-116.998;2023-02-25T03:06:37;99997.09;;;22.52
45701;BMP280;36277;32.852;-116.998;2023-02-25T03:09:14;99998.34;;;22.49
45701;BMP280;36277;32.852;-116.998;2023-02-25T03:11:43;100001.63;;;22.45
45701;BMP280;36277;32.852;-116.998;2023-02-25T03:14:13;100001.94;;;22.50
45701;BMP280;36277;32.852;-116.998;2023-02-25T03:16:56;100003.84;;;22.49
45701;BMP280;36277;32.852;-116.998;2023-02-25T03:19:36;100009.50;;;22.48
45701;BMP280;36277;32.852;-116.998;2023-02-25T03:22:17;100015.38;;;22.45
45701;BMP280;36277;32.852;-116.998;2023-02-25T03:25:13;100007.31;;;22.43
45701;BMP280;36277;32.852;-116.998;2023-02-25T03:27:44;100011.69;;;22.38
45701;BMP280;36277;32.852;-116.998;2023-02-25T03:30:19;100014.69;;;22.43
45701;BMP280;36277;32.852;-116.998;2023-02-25T03:32:52;100025.06;;;22.41
45701;BMP280;36277;32.852;-116.998;2023-02-25T03:35:21;100019.72;;;22.39
45701;BMP280;36277;32.852;-116.998;2023-02-25T03:37:50;100017.84;;;22.40
45701;BMP280;36277;32.852;-116.998;2023-02-25T03:40:20;100016.81;;;22.41
45701;BMP280;36277;32.852;-116.998;2023-02-25T03:42:55;100014.69;;;22.43
45701;BMP280;36277;32.852;-116.998;2023-02-25T03:45:23;100006.84;;;22.40
45701;BMP280;36277;32.852;-116.998;2023-02-25T03:47:50;100010.66;;;22.39
45701;BMP280;36277;32.852;-116.998;2023-02-25T03:50:24;100013.88;;;22.42
45701;BMP280;36277;32.852;-116.998;2023-02-25T03:52:51;100013.19;;;22.40
45701;BMP280;36277;32.852;-116.998;2023-02-25T03:55:17;100015.78;;;22.42
45701;BMP280;36277;32.852;-116.998;2023-02-25T03:57:47;100013.88;;;22.42
45701;BMP280;36277;32.852;-116.998;2023-02-25T04:00:21;100003.72;;;22.43
45701;BMP280;36277;32.852;-116.998;2023-02-25T04:02:48;100005.81;;;22.41
45701;BMP280;36277;32.852;-116.998;2023-02-25T04:05:17;100011.31;;;22.41
45701;BMP280;36277;32.852;-116.998;2023-02-25T04:07:44;100010.66;;;22.39
45701;BMP280;36277;32.852;-116.998;2023-02-25T04:10:13;100009.59;;;22.40
45701;BMP280;36277;32.852;-116.998;2023-02-25T04:12:40;100003.22;;;22.39
45701;BMP280;36277;32.852;-116.998;2023-02-25T04:15:07;100003.44;;;22.38
45701;BMP280;36277;32.852;-116.998;2023-02-25T04:17:35;100008.25;;;22.36
45701;BMP280;36277;32.852;-116.998;2023-02-25T04:20:02;100012.88;;;22.35
45701;BMP280;36277;32.852;-116.998;2023-02-25T04:22:29;100002.22;;;22.32
45701;BMP280;36277;32.852;-116.998;2023-02-25T04:24:56;100002.22;;;22.32
45701;BMP280;36277;32.852;-116.998;2023-02-25T04:27:22;100002.22;;;22.32
45701;BMP280;36277;32.852;-116.998;2023-02-25T04:29:49;100013.22;;;22.32
45701;BMP280;36277;32.852;-116.998;2023-02-25T04:32:15;100009.81;;;22.30
45701;BMP280;36277;32.852;-116.998;2023-02-25T04:34:41;100014.66;;;22.28
45701;BMP280;36277;32.852;-116.998;2023-02-25T04:37:08;100017.78;;;22.25
45701;BMP280;36277;32.852;-116.998;2023-02-25T04:39:35;100015.88;;;22.26
45701;BMP280;36277;32.852;-116.998;2023-02-25T04:42:02;100013.13;;;22.26
45701;BMP280;36277;32.852;-116.998;2023-02-25T04:44:28;100009.69;;;22.24
45701;BMP280;36277;32.852;-116.998;2023-02-25T04:46:54;100013.47;;;22.23
45701;BMP280;36277;32.852;-116.998;2023-02-25T04:49:22;100015.88;;;22.26
45701;BMP280;36277;32.852;-116.998;2023-02-25T04:51:49;100011.41;;;22.25
45701;BMP280;36277;32.852;-116.998;2023-02-25T04:54:17;100013.47;;;22.23
45701;BMP280;36277;32.852;-116.998;2023-02-25T04:56:44;100013.47;;;22.23
45701;BMP280;36277;32.852;-116.998;2023-02-25T04:59:11;100018.13;;;22.22
45701;BMP280;36277;32.852;-116.998;2023-02-25T05:01:38;100021.72;;;22.23
45701;BMP280;36277;32.852;-116.998;2023-02-25T05:04:05;100024.47;;;22.23
45701;BMP280;36277;32.852;-116.998;2023-02-25T05:06:31;100026.84;;;22.26
45701;BMP280;36277;32.852;-116.998;2023-02-25T05:08:58;100026.19;;;22.24
45701;BMP280;36277;32.852;-116.998;2023-02-25T05:11:26;100029.13;;;22.22
45701;BMP280;36277;32.852;-116.998;2023-02-25T05:13:53;100026.56;;;22.21
45701;BMP280;36277;32.852;-116.998;2023-02-25T05:16:23;100037.19;;;22.24
45701;BMP280;36277;32.852;-116.998;2023-02-25T05:18:51;100040.13;;;22.22
45701;BMP280;36277;32.852;-116.998;2023-02-25T05:21:20;100048.19;;;22.24
45701;BMP280;36277;32.852;-116.998;2023-02-25T05:23:48;100035.00;;;22.19
45701;BMP280;36277;32.852;-116.998;2023-02-25T05:26:16;100039.63;;;22.19
45701;BMP280;36277;32.852;-116.998;2023-02-25T05:28:43;100038.78;;;22.18
45701;BMP280;36277;32.852;-116.998;2023-02-25T05:31:10;100039.63;;;22.19
45701;BMP280;36277;32.852;-116.998;2023-02-25T05:33:38;100038.78;;;22.18
45701;BMP280;36277;32.852;-116.998;2023-02-25T05:36:06;100041.72;;;22.17
45701;BMP280;36277;32.852;-116.998;2023-02-25T05:38:33;100036.41;;;22.15
45701;BMP280;36277;32.852;-116.998;2023-02-25T05:41:00;100030.22;;;22.13
45701;BMP280;36277;32.852;-116.998;2023-02-25T05:43:27;100030.41;;;22.12
45701;BMP280;36277;32.852;-116.998;2023-02-25T05:45:54;100031.47;;;22.11
45701;BMP280;36277;32.852;-116.998;2023-02-25T05:48:22;100026.69;;;22.05
45701;BMP280;36277;32.852;-116.998;2023-02-25T05:50:49;100024.97;;;22.04
45701;BMP280;36277;32.852;-116.998;2023-02-25T05:53:19;100030.13;;;22.07
45701;BMP280;36277;32.852;-116.998;2023-02-25T05:55:45;100027.38;;;22.07
45701;BMP280;36277;32.852;-116.998;2023-02-25T05:58:12;100037.31;;;22.08
45701;BMP280;36277;32.852;-116.998;2023-02-25T06:00:38;100032.38;;;22.03
45701;BMP280;36277;32.852;-116.998;2023-02-25T06:03:05;100029.06;;;22.08
45701;BMP280;36277;32.852;-116.998;2023-02-25T06:05:31;100014.81;;;22.04
45701;BMP280;36277;32.852;-116.998;2023-02-25T06:07:58;100018.09;;;22.08
45701;BMP280;36277;32.852;-116.998;2023-02-25T06:10:26;100016.16;;;22.08
45701;BMP280;36277;32.852;-116.998;2023-02-25T06:12:52;100023.56;;;22.08
45701;BMP280;36277;32.852;-116.998;2023-02-25T06:15:18;100012.38;;;22.09
45701;BMP280;36277;32.852;-116.998;2023-02-25T06:17:45;100011.53;;;22.09
45701;BMP280;36277;32.852;-116.998;2023-02-25T06:20:11;100006.88;;;22.09
45701;BMP280;36277;32.852;-116.998;2023-02-25T06:22:41;100010.50;;;22.10
45701;BMP280;36277;32.852;-116.998;2023-02-25T06:25:08;100007.75;;;22.10
45701;BMP280;36277;32.852;-116.998;2023-02-25T06:27:34;100005.53;;;22.05
45701;BMP280;36277;32.852;-116.998;2023-02-25T06:30:00;100009.16;;;22.06
45701;BMP280;36277;32.852;-116.998;2023-02-25T06:32:27;100002.63;;;22.07
45701;BMP280;36277;32.852;-116.998;2023-02-25T06:34:54;100005.38;;;22.07
45701;BMP280;36277;32.852;-116.998;2023-02-25T06:37:21;99997.50;;;22.04
45701;BMP280;36277;32.852;-116.998;2023-02-25T06:39:47;99986.13;;;22.07
45701;BMP280;36277;32.852;-116.998;2023-02-25T06:42:13;99997.50;;;22.04
45701;BMP280;36277;32.852;-116.998;2023-02-25T06:44:40;99988.22;;;22.05
45701;BMP280;36277;32.852;-116.998;2023-02-25T06:47:06;99994.53;;;22.05
45701;BMP280;36277;32.852;-116.998;2023-02-25T06:49:32;99988.22;;;22.05
45701;BMP280;36277;32.852;-116.998;2023-02-25T06:51:59;99988.88;;;22.07
45701;BMP280;36277;32.852;-116.998;2023-02-25T06:54:25;99992.47;;;22.07
45701;BMP280;36277;32.852;-116.998;2023-02-25T06:56:53;99987.34;;;22.04
45701;BMP280;36277;32.852;-116.998;2023-02-25T06:59:20;99986.50;;;22.04
45701;BMP280;36277;32.852;-116.998;2023-02-25T07:01:46;99986.50;;;22.04
45701;BMP280;36277;32.852;-116.998;2023-02-25T07:04:17;99993.72;;;22.05
45701;BMP280;36277;32.852;-116.998;2023-02-25T07:06:44;99999.56;;;22.02
45701;BMP280;36277;32.852;-116.998;2023-02-25T07:09:10;99994.28;;;22.00
45701;BMP280;36277;32.852;-116.998;2023-02-25T07:11:37;99998.72;;;22.01
45701;BMP280;36277;32.852;-116.998;2023-02-25T07:14:04;99986.19;;;21.99
45701;BMP280;36277;32.852;-116.998;2023-02-25T07:16:31;99997.03;;;22.00
45701;BMP280;36277;32.852;-116.998;2023-02-25T07:18:59;100000.28;;;21.96
45701;BMP280;36277;32.852;-116.998;2023-02-25T07:21:29;99990.66;;;22.00
45701;BMP280;36277;32.852;-116.998;2023-02-25T07:23:56;99981.38;;;22.01
45701;BMP280;36277;32.852;-116.998;2023-02-25T07:26:23;99985.88;;;21.94
45701;BMP280;36277;32.852;-116.998;2023-02-25T07:28:55;99984.47;;;21.98
45701;BMP280;36277;32.852;-116.998;2023-02-25T07:31:21;99971.78;;;21.97
45701;BMP280;36277;32.852;-116.998;2023-02-25T07:33:47;99982.78;;;21.97
45701;BMP280;36277;32.852;-116.998;2023-02-25T07:36:14;99978.81;;;21.99
45701;BMP280;36277;32.852;-116.998;2023-02-25T07:38:41;99980.91;;;21.97
45701;BMP280;36277;32.852;-116.998;2023-02-25T07:41:10;99969.03;;;21.97
45701;BMP280;36277;32.852;-116.998;2023-02-25T07:43:37;99962.34;;;21.99
45701;BMP280;36277;32.852;-116.998;2023-02-25T07:46:05;99959.75;;;21.98
45701;BMP280;36277;32.852;-116.998;2023-02-25T07:48:31;99949.13;;;21.95
45701;BMP280;36277;32.852;-116.998;2023-02-25T07:51:18;99953.41;;;21.97
45701;BMP280;36277;32.852;-116.998;2023-02-25T07:53:46;99958.81;;;21.91
45701;BMP280;36277;32.852;-116.998;2023-02-25T07:56:13;99949.13;;;21.95
45701;BMP280;36277;32.852;-116.998;2023-02-25T07:58:40;99963.91;;;21.94
45701;BMP280;36277;32.852;-116.998;2023-02-25T08:01:12;99962.03;;;21.94
45701;BMP280;36277;32.852;-116.998;2023-02-25T08:03:43;99952.78;;;21.88
45701;BMP280;36277;32.852;-116.998;2023-02-25T08:06:10;99948.34;;;21.87
45701;BMP280;36277;32.852;-116.998;2023-02-25T08:08:36;99948.34;;;21.87
45701;BMP280;36277;32.852;-116.998;2023-02-25T08:11:07;99946.09;;;21.90
45701;BMP280;36277;32.852;-116.998;2023-02-25T08:13:35;99948.16;;;21.88
45701;BMP280;36277;32.852;-116.998;2023-02-25T08:16:09;99957.63;;;21.86
45701;BMP280;36277;32.852;-116.998;2023-02-25T08:18:36;99958.84;;;21.83
45701;BMP280;36277;32.852;-116.998;2023-02-25T08:21:02;99954.41;;;21.82
45701;BMP280;36277;32.852;-116.998;2023-02-25T08:23:29;99965.53;;;21.81
45701;BMP280;36277;32.852;-116.998;2023-02-25T08:25:57;99965.03;;;21.85
45701;BMP280;36277;32.852;-116.998;2023-02-25T08:28:25;99949.06;;;21.81
45701;BMP280;36277;32.852;-116.998;2023-02-25T08:30:52;99945.28;;;21.82
45701;BMP280;36277;32.852;-116.998;2023-02-25T08:33:19;99940.66;;;21.82
45701;BMP280;36277;32.852;-116.998;2023-02-25T08:35:46;99937.91;;;21.82
45701;BMP280;36277;32.852;-116.998;2023-02-25T08:38:12;99931.75;;;21.80
45701;BMP280;36277;32.852;-116.998;2023-02-25T08:40:39;99925.22;;;21.81
45701;BMP280;36277;32.852;-116.998;2023-02-25T08:43:06;99920.75;;;21.80
45701;BMP280;36277;32.852;-116.998;2023-02-25T08:45:33;99920.94;;;21.79
45701;BMP280;36277;32.852;-116.998;2023-02-25T08:48:01;99900.66;;;21.80
45701;BMP280;36277;32.852;-116.998;2023-02-25T08:50:27;99900.00;;;21.78
45701;BMP280;36277;32.852;-116.998;2023-02-25T08:52:54;99901.88;;;21.77
45701;BMP280;36277;32.852;-116.998;2023-02-25T08:55:20;99887.47;;;21.75
45701;BMP280;36277;32.852;-116.998;2023-02-25T08:57:52;99892.81;;;21.77
45701;BMP280;36277;32.852;-116.998;2023-02-25T09:00:19;99894.38;;;21.71
45701;BMP280;36277;32.852;-116.998;2023-02-25T09:02:46;99881.50;;;21.72
45701;BMP280;36277;32.852;-116.998;2023-02-25T09:05:12;99873.44;;;21.70
45701;BMP280;36277;32.852;-116.998;2023-02-25T09:07:39;99881.00;;;21.68
45701;BMP280;36277;32.852;-116.998;2023-02-25T09:10:05;99868.31;;;21.67
45701;BMP280;36277;32.852;-116.998;2023-02-25T09:12:32;99875.91;;;21.65
45701;BMP280;36277;32.852;-116.998;2023-02-25T09:15:01;99868.72;;;21.64
45701;BMP280;36277;32.852;-116.998;2023-02-25T09:17:27;99872.28;;;21.65
45701;BMP280;36277;32.852;-116.998;2023-02-25T09:19:54;99869.53;;;21.65
45701;BMP280;36277;32.852;-116.998;2023-02-25T09:22:20;99857.72;;;21.64
45701;BMP280;36277;32.852;-116.998;2023-02-25T09:24:46;99857.06;;;21.62
45701;BMP280;36277;32.852;-116.998;2023-02-25T09:27:13;99855.34;;;21.61
45701;BMP280;36277;32.852;-116.998;2023-02-25T09:29:39;99865.28;;;21.62
45701;BMP280;36277;32.852;-116.998;2023-02-25T09:32:07;99851.56;;;21.62
45701;BMP280;36277;32.852;-116.998;2023-02-25T09:34:33;99852.25;;;21.56
45701;BMP280;36277;32.852;-116.998;2023-02-25T09:37:02;99842.97;;;21.57
45701;BMP280;36277;32.852;-116.998;2023-02-25T09:39:29;99833.88;;;21.57
45701;BMP280;36277;32.852;-116.998;2023-02-25T09:42:01;99834.03;;;21.63
45701;BMP280;36277;32.852;-116.998;2023-02-25T09:54:48;99814.84;;;21.55
45701;BMP280;36277;32.852;-116.998;2023-02-25T09:57:19;99809.72;;;21.52
45701;BMP280;36277;32.852;-116.998;2023-02-25T09:59:49;99805.94;;;21.53
45701;BMP280;36277;32.852;-116.998;2023-02-25T10:02:36;99795.97;;;21.60
45701;BMP280;36277;32.852;-116.998;2023-02-25T10:05:25;99795.41;;;21.65
45701;BMP280;36277;32.852;-116.998;2023-02-25T10:07:55;99794.47;;;21.72
45701;BMP280;36277;32.852;-116.998;2023-02-25T10:13:39;99780.84;;;21.93
45701;BMP280;36277;32.852;-116.998;2023-02-25T10:30:25;99748.38;;;22.11
45701;BMP280;36277;32.852;-116.998;2023-02-25T10:32:53;99735.00;;;22.08
45701;BMP280;36277;32.852;-116.998;2023-02-25T10:35:27;99733.59;;;22.12
45701;BMP280;36277;32.852;-116.998;2023-02-25T10:37:54;99733.75;;;22.10
45701;BMP280;36277;32.852;-116.998;2023-02-25T10:40:23;99722.97;;;22.09
45701;BMP280;36277;32.852;-116.998;2023-02-25T10:42:52;99712.34;;;22.06
45701;BMP280;36277;32.852;-116.998;2023-02-25T10:45:28;99720.38;;;22.07
45701;BMP280;36277;32.852;-116.998;2023-02-25T10:48:20;99715.94;;;22.06
45701;BMP280;36277;32.852;-116.998;2023-02-25T10:51:08;99719.09;;;22.03
45701;BMP280;36277;32.852;-116.998;2023-02-25T10:53:38;99714.16;;;21.99
45701;BMP280;36277;32.852;-116.998;2023-02-25T10:56:04;99713.97;;;22.00
45701;BMP280;36277;32.852;-116.998;2023-02-25T10:58:43;99707.91;;;22.05
45701;BMP280;36277;32.852;-116.998;2023-02-25T11:01:20;99704.03;;;21.99
45701;BMP280;36277;32.852;-116.998;2023-02-25T11:03:58;99706.19;;;22.04
45701;BMP280;36277;32.852;-116.998;2023-02-25T11:06:30;99702.78;;;22.02
45701;BMP280;36277;32.852;-116.998;2023-02-25T11:09:01;99694.53;;;22.02
45701;BMP280;36277;32.852;-116.998;2023-02-25T11:11:37;99688.38;;;22.00
45701;BMP280;36277;32.852;-116.998;2023-02-25T11:16:37;99688.19;;;22.01
45701;BMP280;36277;32.852;-116.998;2023-02-25T11:21:41;99672.28;;;21.97
45701;BMP280;36277;32.852;-116.998;2023-02-25T11:24:17;99668.47;;;21.98
45701;BMP280;36277;32.852;-116.998;2023-02-25T11:26:47;99668.84;;;21.95
45701;BMP280;36277;32.852;-116.998;2023-02-25T11:29:20;99667.16;;;21.94
45701;BMP280;36277;32.852;-116.998;2023-02-25T11:32:00;99664.41;;;21.94
45701;BMP280;36277;32.852;-116.998;2023-02-25T11:34:35;99662.44;;;21.88
45701;BMP280;36277;32.852;-116.998;2023-02-25T11:37:25;99668.59;;;21.90
45701;BMP280;36277;32.852;-116.998;2023-02-25T11:39:55;99650.59;;;21.88
45701;BMP280;36277;32.852;-116.998;2023-02-25T11:42:24;99655.91;;;21.89
45701;BMP280;36277;32.852;-116.998;2023-02-25T11:45:02;99646.63;;;21.90
45701;BMP280;36277;32.852;-116.998;2023-02-25T11:47:33;99652.50;;;21.87
45701;BMP280;36277;32.852;-116.998;2023-02-25T11:56:07;99651.53;;;21.80
45701;BMP280;36277;32.852;-116.998;2023-02-25T11:58:49;99655.34;;;21.79
45701;BMP280;36277;32.852;-116.998;2023-02-25T12:07:25;99642.63;;;21.78
45701;BMP280;36277;32.852;-116.998;2023-02-25T12:24:09;99651.47;;;21.74
45701;BMP280;36277;32.852;-116.998;2023-02-25T12:33:18;99675.69;;;21.70
45701;BMP280;36277;32.852;-116.998;2023-02-25T12:39:13;99665.75;;;21.69
45701;BMP280;36277;32.852;-116.998;2023-02-25T12:44:43;99657.69;;;21.68
45701;BMP280;36277;32.852;-116.998;2023-02-25T13:01:19;99681.56;;;21.67
45701;BMP280;36277;32.852;-116.998;2023-02-25T13:12:32;99672.84;;;21.64
45701;BMP280;36277;32.852;-116.998;2023-02-25T13:28:51;99735.88;;;21.57
45701;BMP280;36277;32.852;-116.998;2023-02-25T13:31:43;99757.53;;;21.60
45701;BMP280;36277;32.852;-116.998;2023-02-25T13:39:49;99761.78;;;21.63
45701;BMP280;36277;32.852;-116.998;2023-02-25T13:45:29;99761.63;;;21.56
45701;BMP280;36277;32.852;-116.998;2023-02-25T13:48:21;99756.16;;;21.56
45701;BMP280;36277;32.852;-116.998;2023-02-25T13:53:54;99763.41;;;21.49
45701;BMP280;36277;32.852;-116.998;2023-02-25T14:11:32;99775.03;;;21.37
45701;BMP280;36277;32.852;-116.998;2023-02-25T14:19:50;99801.50;;;21.30
45701;BMP280;36277;32.852;-116.998;2023-02-25T14:22:36;99793.25;;;21.30
45701;BMP280;36277;32.852;-116.998;2023-02-25T14:28:25;99810.13;;;21.27
45701;BMP280;36277;32.852;-116.998;2023-02-25T14:40:16;99835.34;;;21.22
45701;BMP280;36277;32.852;-116.998;2023-02-25T14:43:36;99839.13;;;21.21
45701;BMP280;36277;32.852;-116.998;2023-02-25T14:47:11;99845.47;;;21.22
45701;BMP280;36277;32.852;-116.998;2023-02-25T14:49:30;99850.97;;;21.22
45701;BMP280;36277;32.852;-116.998;2023-02-25T14:55:58;99863.66;;;21.23
45701;BMP280;36277;32.852;-116.998;2023-02-25T15:03:42;99878.00;;;21.55
45701;BMP280;36277;32.852;-116.998;2023-02-25T15:09:35;99885.97;;;21.73
45701;BMP280;36277;32.852;-116.998;2023-02-25T15:21:41;99912.34;;;22.18
45701;BMP280;36277;32.852;-116.998;2023-02-25T15:24:37;99899.66;;;22.32
45701;BMP280;36277;32.852;-116.998;2023-02-25T15:30:15;99912.97;;;22.57
45701;BMP280;36277;32.852;-116.998;2023-02-25T15:35:19;99917.56;;;22.79
45701;BMP280;36277;32.852;-116.998;2023-02-25T15:42:49;99959.59;;;23.16
45701;BMP280;36277;32.852;-116.998;2023-02-25T15:58:54;99970.03;;;23.21
45701;BMP280;36277;32.852;-116.998;2023-02-25T16:03:54;99990.56;;;23.18
45701;BMP280;36277;32.852;-116.998;2023-02-25T16:06:31;99990.34;;;23.20
45701;BMP280;36277;32.852;-116.998;2023-02-25T16:09:15;100005.34;;;23.17
45701;BMP280;36277;32.852;-116.998;2023-02-25T16:11:46;100017.78;;;23.13
45701;BMP280;36277;32.852;-116.998;2023-02-25T16:14:34;100022.63;;;23.11
45701;BMP280;36277;32.852;-116.998;2023-02-25T16:17:28;100011.63;;;23.11
45701;BMP280;36277;32.852;-116.998;2023-02-25T16:20:05;100007.88;;;23.04
45701;BMP280;36277;32.852;-116.998;2023-02-25T16:22:33;100011.88;;;23.02
45701;BMP280;36277;32.852;-116.998;2023-02-25T16:25:00;100024.09;;;22.99
45701;BMP280;36277;32.852;-116.998;2023-02-25T16:27:45;100064.34;;;23.00
45701;BMP280;36277;32.852;-116.998;2023-02-25T16:30:21;100060.47;;;22.95
45701;BMP280;36277;32.852;-116.998;2023-02-25T16:35:55;100054.00;;;22.88
45701;BMP280;36277;32.852;-116.998;2023-02-25T16:38:41;100066.59;;;22.83
45701;BMP280;36277;32.852;-116.998;2023-02-25T16:41:12;100064.78;;;22.75
45701;BMP280;36277;32.852;-116.998;2023-02-25T16:43:41;100063.09;;;22.74
45701;BMP280;36277;32.852;-116.998;2023-02-25T16:46:14;100073.22;;;22.74
45701;BMP280;36277;32.852;-116.998;2023-02-25T16:48:49;100062.59;;;22.71
45701;BMP280;36277;32.852;-116.998;2023-02-25T16:51:28;100040.97;;;22.68
45701;BMP280;36277;32.852;-116.998;2023-02-25T16:54:11;100037.91;;;22.63
45701;BMP280;36277;32.852;-116.998;2023-02-25T16:56:41;100054.44;;;22.63
45701;BMP280;36277;32.852;-116.998;2023-02-25T17:01:37;100089.50;;;22.61
45701;BMP280;36277;32.852;-116.998;2023-02-25T17:04:19;100061.13;;;22.60
45701;BMP280;36277;32.852;-116.998;2023-02-25T17:09:48;100075.44;;;22.56
45701;BMP280;36277;32.852;-116.998;2023-02-25T17:12:18;100083.03;;;22.54
45701;BMP280;36277;32.852;-116.998;2023-02-25T17:14:48;100098.19;;;22.50
45701;BMP280;36277;32.852;-116.998;2023-02-25T17:17:36;100099.91;;;22.51
45701;BMP280;36277;32.852;-116.998;2023-02-25T17:20:07;100079.50;;;22.45
45701;BMP280;36277;32.852;-116.998;2023-02-25T17:22:39;100076.06;;;22.43
45701;BMP280;36277;32.852;-116.998;2023-02-25T17:25:11;100080.53;;;22.44
45701;BMP280;36277;32.852;-116.998;2023-02-25T17:27:41;100091.59;;;22.36
45701;BMP280;36277;32.852;-116.998;2023-02-25T17:32:56;100104.16;;;22.31
45701;BMP280;36277;32.852;-116.998;2023-02-25T17:35:25;100088.88;;;22.28
45701;BMP280;36277;32.852;-116.998;2023-02-25T17:37:53;100068.09;;;22.26